sensor_id;sensor_type;location;lat;lon;timestamp;P1;durP1;ratioP1;P2;durP2;ratioP2
32152;SDS011;18656;50.580;11.392;2023-02-11T00:01:07;40.45;;;23.77;;
32152;SDS011;18656;50.580;11.392;2023-02-11T00:03:34;41.13;;;23.88;;
32152;SDS011;18656;50.580;11.392;2023-02-11T00:06:03;40.80;;;24.33;;
32152;SDS011;18656;50.580;11.392;2023-02-11T00:08:30;42.40;;;23.63;;
32152;SDS011;18656;50.580;11.392;2023-02-11T00:10:58;43.10;;;23.80;;
32152;SDS011;18656;50.580;11.392;2023-02-11T00:13:25;40.92;;;23.90;;
32152;SDS011;18656;50.580;11.392;2023-02-11T00:15:55;37.58;;;23.38;;
32152;SDS011;18656;50.580;11.392;2023-02-11T00:18:22;39.88;;;24.23;;
32152;SDS011;18656;50.580;11.392;2023-02-11T00:20:50;41.65;;;23.48;;
32152;SDS011;18656;50.580;11.392;2023-02-11T00:23:17;44.45;;;23.73;;
32152;SDS011;18656;50.580;11.392;2023-02-11T00:25:45;42.55;;;23.20;;
32152;SDS011;18656;50.580;11.392;2023-02-11T00:28:12;39.75;;;22.08;;
32152;SDS011;18656;50.580;11.392;2023-02-11T00:30:39;34.28;;;21.98;;
32152;SDS011;18656;50.580;11.392;2023-02-11T00:33:07;38.83;;;22.80;;
32152;SDS011;18656;50.580;11.392;2023-02-11T00:35:35;38.40;;;22.55;;
32152;SDS011;18656;50.580;11.392;2023-02-11T00:38:03;35.72;;;22.17;;
32152;SDS011;18656;50.580;11.392;2023-02-11T00:40:30;37.30;;;21.48;;
32152;SDS011;18656;50.580;11.392;2023-02-11T00:42:58;36.60;;;21.88;;
32152;SDS011;18656;50.580;11.392;2023-02-11T00:45:25;36.03;;;22.52;;
32152;SDS011;18656;50.580;11.392;2023-02-11T00:47:53;39.50;;;23.17;;
32152;SDS011;18656;50.580;11.392;2023-02-11T00:50:21;35.92;;;21.92;;
32152;SDS011;18656;50.580;11.392;2023-02-11T00:52:48;41.00;;;23.75;;
32152;SDS011;18656;50.580;11.392;2023-02-11T00:55:16;38.55;;;23.40;;
32152;SDS011;18656;50.580;11.392;2023-02-11T00:57:43;39.65;;;22.98;;
32152;SDS011;18656;50.580;11.392;2023-02-11T01:00:11;37.20;;;21.80;;
32152;SDS011;18656;50.580;11.392;2023-02-11T01:02:39;37.78;;;23.27;;
32152;SDS011;18656;50.580;11.392;2023-02-11T01:05:07;38.03;;;22.10;;
32152;SDS011;18656;50.580;11.392;2023-02-11T01:07:34;39.88;;;23.25;;
32152;SDS011;18656;50.580;11.392;2023-02-11T01:10:02;36.38;;;22.05;;
32152;SDS011;18656;50.580;11.392;2023-02-11T01:12:29;37.00;;;22.05;;
32152;SDS011;18656;50.580;11.392;2023-02-11T01:15:01;38.17;;;23.42;;
32152;SDS011;18656;50.580;11.392;2023-02-11T01:17:28;36.92;;;21.75;;
32152;SDS011;18656;50.580;11.392;2023-02-11T01:19:55;34.97;;;21.63;;
32152;SDS011;18656;50.580;11.392;2023-02-11T01:22:23;50.00;;;23.10;;
32152;SDS011;18656;50.580;11.392;2023-02-11T01:24:51;32.63;;;20.75;;
32152;SDS011;18656;50.580;11.392;2023-02-11T01:27:18;37.47;;;21.48;;
32152;SDS011;18656;50.580;11.392;2023-02-11T01:29:45;36.10;;;21.23;;
32152;SDS011;18656;50.580;11.392;2023-02-11T01:32:12;34.65;;;21.17;;
32152;SDS011;18656;50.580;11.392;2023-02-11T01:34:39;35.15;;;21.70;;
32152;SDS011;18656;50.580;11.392;2023-02-11T01:37:07;35.45;;;20.67;;
32152;SDS011;18656;50.580;11.392;2023-02-11T01:39:34;39.95;;;23.02;;
32152;SDS011;18656;50.580;11.392;2023-02-11T01:42:01;37.67;;;21.58;;
32152;SDS011;18656;50.580;11.392;2023-02-11T01:44:33;37.55;;;22.17;;
32152;SDS011;18656;50.580;11.392;2023-02-11T01:47:02;35.00;;;20.67;;
32152;SDS011;18656;50.580;11.392;2023-02-11T01:49:32;35.55;;;21.25;;
32152;SDS011;18656;50.580;11.392;2023-02-11T01:52:09;40.28;;;21.30;;
32152;SDS011;18656;50.580;11.392;2023-02-11T01:54:39;38.67;;;22.25;;
32152;SDS011;18656;50.580;11.392;2023-02-11T01:57:28;33.85;;;20.85;;
32152;SDS011;18656;50.580;11.392;2023-02-11T01:59:58;37.10;;;22.42;;
32152;SDS011;18656;50.580;11.392;2023-02-11T02:02:30;37.15;;;23.02;;
32152;SDS011;18656;50.580;11.392;2023-02-11T02:05:07;34.58;;;21.45;;
32152;SDS011;18656;50.580;11.392;2023-02-11T02:07:41;37.85;;;22.23;;
32152;SDS011;18656;50.580;11.392;2023-02-11T02:10:13;37.08;;;21.80;;
32152;SDS011;18656;50.580;11.392;2023-02-11T02:12:42;34.75;;;20.77;;
32152;SDS011;18656;50.580;11.392;2023-02-11T02:15:20;38.85;;;21.08;;
32152;SDS011;18656;50.580;11.392;2023-02-11T02:17:51;35.92;;;22.60;;
32152;SDS011;18656;50.580;11.392;2023-02-11T02:25:18;40.63;;;22.67;;
32152;SDS011;18656;50.580;11.392;2023-02-11T02:30:47;36.17;;;21.88;;
32152;SDS011;18656;50.580;11.392;2023-02-11T02:36:14;40.17;;;22.13;;
32152;SDS011;18656;50.580;11.392;2023-02-11T02:41:15;34.97;;;20.20;;
32152;SDS011;18656;50.580;11.392;2023-02-11T02:43:43;37.00;;;20.42;;
32152;SDS011;18656;50.580;11.392;2023-02-11T02:46:17;35.10;;;21.17;;
32152;SDS011;18656;50.580;11.392;2023-02-11T02:48:45;36.60;;;20.50;;
32152;SDS011;18656;50.580;11.392;2023-02-11T02:51:35;36.38;;;21.33;;
32152;SDS011;18656;50.580;11.392;2023-02-11T02:56:43;37.42;;;22.50;;
32152;SDS011;18656;50.580;11.392;2023-02-11T03:09:25;39.35;;;22.00;;
32152;SDS011;18656;50.580;11.392;2023-02-11T03:11:54;39.50;;;23.42;;
32152;SDS011;18656;50.580;11.392;2023-02-11T03:14:21;37.42;;;22.80;;
32152;SDS011;18656;50.580;11.392;2023-02-11T03:16:52;38.53;;;23.27;;
32152;SDS011;18656;50.580;11.392;2023-02-11T03:19:54;41.25;;;24.33;;
32152;SDS011;18656;50.580;11.392;2023-02-11T03:22:16;43.50;;;24.13;;
32152;SDS011;18656;50.580;11.392;2023-02-11T03:24:44;39.40;;;23.23;;
32152;SDS011;18656;50.580;11.392;2023-02-11T03:27:26;38.25;;;23.17;;
32152;SDS011;18656;50.580;11.392;2023-02-11T03:29:58;40.40;;;23.40;;
32152;SDS011;18656;50.580;11.392;2023-02-11T03:32:37;37.83;;;23.10;;
32152;SDS011;18656;50.580;11.392;2023-02-11T03:36:07;42.40;;;23.42;;
32152;SDS011;18656;50.580;11.392;2023-02-11T03:38:10;38.28;;;22.80;;
32152;SDS011;18656;50.580;11.392;2023-02-11T03:40:39;37.88;;;22.95;;
32152;SDS011;18656;50.580;11.392;2023-02-11T03:43:08;39.13;;;22.65;;
32152;SDS011;18656;50.580;11.392;2023-02-11T03:45:36;36.38;;;22.95;;
32152;SDS011;18656;50.580;11.392;2023-02-11T03:48:05;35.58;;;22.73;;
32152;SDS011;18656;50.580;11.392;2023-02-11T03:50:35;37.92;;;22.52;;
32152;SDS011;18656;50.580;11.392;2023-02-11T03:53:03;35.92;;;22.10;;
32152;SDS011;18656;50.580;11.392;2023-02-11T03:55:32;41.20;;;23.60;;
32152;SDS011;18656;50.580;11.392;2023-02-11T03:58:02;39.83;;;22.85;;
32152;SDS011;18656;50.580;11.392;2023-02-11T04:00:30;35.95;;;22.08;;
32152;SDS011;18656;50.580;11.392;2023-02-11T04:02:57;41.63;;;23.83;;
32152;SDS011;18656;50.580;11.392;2023-02-11T04:05:24;37.30;;;22.30;;
32152;SDS011;18656;50.580;11.392;2023-02-11T04:07:52;40.78;;;23.58;;
32152;SDS011;18656;50.580;11.392;2023-02-11T04:10:19;40.92;;;23.05;;
32152;SDS011;18656;50.580;11.392;2023-02-11T04:12:46;41.20;;;24.40;;
32152;SDS011;18656;50.580;11.392;2023-02-11T04:15:14;41.58;;;24.83;;
32152;SDS011;18656;50.580;11.392;2023-02-11T04:17:41;42.10;;;22.90;;
32152;SDS011;18656;50.580;11.392;2023-02-11T04:20:08;38.30;;;23.27;;
32152;SDS011;18656;50.580;11.392;2023-02-11T04:22:36;39.47;;;23.98;;
32152;SDS011;18656;50.580;11.392;2023-02-11T04:25:04;36.58;;;23.00;;
32152;SDS011;18656;50.580;11.392;2023-02-11T04:27:31;37.08;;;23.13;;
32152;SDS011;18656;50.580;11.392;2023-02-11T04:29:59;39.72;;;23.95;;
32152;SDS011;18656;50.580;11.392;2023-02-11T04:32:26;41.88;;;23.92;;
32152;SDS011;18656;50.580;11.392;2023-02-11T04:34:53;38.33;;;22.70;;
32152;SDS011;18656;50.580;11.392;2023-02-11T04:37:21;37.78;;;24.08;;
32152;SDS011;18656;50.580;11.392;2023-02-11T04:39:48;38.22;;;23.30;;
32152;SDS011;18656;50.580;11.392;2023-02-11T04:42:15;36.53;;;23.17;;
32152;SDS011;18656;50.580;11.392;2023-02-11T04:44:42;39.53;;;24.17;;
32152;SDS011;18656;50.580;11.392;2023-02-11T04:47:10;39.65;;;23.52;;
32152;SDS011;18656;50.580;11.392;2023-02-11T04:49:40;38.92;;;23.70;;
32152;SDS011;18656;50.580;11.392;2023-02-11T04:52:08;37.75;;;23.33;;
32152;SDS011;18656;50.580;11.392;2023-02-11T04:54:35;38.53;;;22.77;;
32152;SDS011;18656;50.580;11.392;2023-02-11T04:57:02;45.53;;;26.08;;
32152;SDS011;18656;50.580;11.392;2023-02-11T04:59:29;40.10;;;24.10;;
32152;SDS011;18656;50.580;11.392;2023-02-11T05:01:57;47.05;;;27.35;;
32152;SDS011;18656;50.580;11.392;2023-02-11T05:04:24;41.45;;;25.95;;
32152;SDS011;18656;50.580;11.392;2023-02-11T05:06:51;43.50;;;25.95;;
32152;SDS011;18656;50.580;11.392;2023-02-11T05:09:19;47.90;;;26.08;;
32152;SDS011;18656;50.580;11.392;2023-02-11T05:11:46;69.72;;;32.08;;
32152;SDS011;18656;50.580;11.392;2023-02-11T05:14:13;42.92;;;25.80;;
32152;SDS011;18656;50.580;11.392;2023-02-11T05:16:40;44.08;;;26.15;;
32152;SDS011;18656;50.580;11.392;2023-02-11T05:19:08;43.05;;;26.52;;
32152;SDS011;18656;50.580;11.392;2023-02-11T05:21:35;42.03;;;25.45;;
32152;SDS011;18656;50.580;11.392;2023-02-11T05:24:02;42.88;;;25.92;;
32152;SDS011;18656;50.580;11.392;2023-02-11T05:26:29;70.30;;;32.58;;
32152;SDS011;18656;50.580;11.392;2023-02-11T05:28:57;86.32;;;31.75;;
32152;SDS011;18656;50.580;11.392;2023-02-11T05:31:24;44.00;;;25.77;;
32152;SDS011;18656;50.580;11.392;2023-02-11T05:33:51;49.97;;;27.15;;
32152;SDS011;18656;50.580;11.392;2023-02-11T05:36:18;44.33;;;26.00;;
32152;SDS011;18656;50.580;11.392;2023-02-11T05:38:45;44.42;;;26.17;;
32152;SDS011;18656;50.580;11.392;2023-02-11T05:41:13;44.75;;;26.17;;
32152;SDS011;18656;50.580;11.392;2023-02-11T05:43:40;44.45;;;26.40;;
32152;SDS011;18656;50.580;11.392;2023-02-11T05:46:07;45.15;;;26.80;;
32152;SDS011;18656;50.580;11.392;2023-02-11T05:48:35;44.63;;;26.35;;
32152;SDS011;18656;50.580;11.392;2023-02-11T05:51:02;45.28;;;26.20;;
32152;SDS011;18656;50.580;11.392;2023-02-11T05:53:29;44.22;;;25.80;;
32152;SDS011;18656;50.580;11.392;2023-02-11T05:55:57;42.72;;;25.70;;
32152;SDS011;18656;50.580;11.392;2023-02-11T05:58:24;43.30;;;25.02;;
32152;SDS011;18656;50.580;11.392;2023-02-11T06:00:51;39.92;;;24.98;;
32152;SDS011;18656;50.580;11.392;2023-02-11T06:03:18;42.47;;;26.13;;
32152;SDS011;18656;50.580;11.392;2023-02-11T06:05:46;40.63;;;25.92;;
32152;SDS011;18656;50.580;11.392;2023-02-11T06:08:13;39.55;;;24.75;;
32152;SDS011;18656;50.580;11.392;2023-02-11T06:10:43;43.38;;;25.52;;
32152;SDS011;18656;50.580;11.392;2023-02-11T06:13:10;42.75;;;24.88;;
32152;SDS011;18656;50.580;11.392;2023-02-11T06:15:38;42.55;;;24.58;;
32152;SDS011;18656;50.580;11.392;2023-02-11T06:18:06;39.50;;;24.17;;
32152;SDS011;18656;50.580;11.392;2023-02-11T06:20:33;38.67;;;22.88;;
32152;SDS011;18656;50.580;11.392;2023-02-11T06:23:01;41.00;;;25.25;;
32152;SDS011;18656;50.580;11.392;2023-02-11T06:25:28;43.42;;;24.80;;
32152;SDS011;18656;50.580;11.392;2023-02-11T06:27:55;41.50;;;25.40;;
32152;SDS011;18656;50.580;11.392;2023-02-11T06:30:23;42.67;;;25.83;;
32152;SDS011;18656;50.580;11.392;2023-02-11T06:32:50;40.38;;;24.38;;
32152;SDS011;18656;50.580;11.392;2023-02-11T06:35:18;43.03;;;24.70;;
32152;SDS011;18656;50.580;11.392;2023-02-11T06:37:45;42.10;;;24.58;;
32152;SDS011;18656;50.580;11.392;2023-02-11T06:40:15;41.08;;;24.50;;
32152;SDS011;18656;50.580;11.392;2023-02-11T06:42:42;39.97;;;24.08;;
32152;SDS011;18656;50.580;11.392;2023-02-11T06:45:09;38.38;;;23.23;;
32152;SDS011;18656;50.580;11.392;2023-02-11T06:47:38;40.22;;;23.63;;
32152;SDS011;18656;50.580;11.392;2023-02-11T06:50:06;43.83;;;24.83;;
32152;SDS011;18656;50.580;11.392;2023-02-11T06:52:34;40.25;;;24.33;;
32152;SDS011;18656;50.580;11.392;2023-02-11T06:55:01;39.90;;;25.40;;
32152;SDS011;18656;50.580;11.392;2023-02-11T06:57:29;41.80;;;24.23;;
32152;SDS011;18656;50.580;11.392;2023-02-11T06:59:57;40.95;;;25.25;;
32152;SDS011;18656;50.580;11.392;2023-02-11T07:02:24;41.33;;;24.48;;
32152;SDS011;18656;50.580;11.392;2023-02-11T07:04:51;44.17;;;26.50;;
32152;SDS011;18656;50.580;11.392;2023-02-11T07:07:19;42.67;;;24.27;;
32152;SDS011;18656;50.580;11.392;2023-02-11T07:09:46;39.63;;;24.83;;
32152;SDS011;18656;50.580;11.392;2023-02-11T07:12:14;43.53;;;25.38;;
32152;SDS011;18656;50.580;11.392;2023-02-11T07:14:42;40.08;;;24.35;;
32152;SDS011;18656;50.580;11.392;2023-02-11T07:17:09;41.58;;;25.52;;
32152;SDS011;18656;50.580;11.392;2023-02-11T07:19:36;41.88;;;25.63;;
32152;SDS011;18656;50.580;11.392;2023-02-11T07:22:03;45.90;;;26.20;;
32152;SDS011;18656;50.580;11.392;2023-02-11T07:24:31;42.00;;;25.63;;
32152;SDS011;18656;50.580;11.392;2023-02-11T07:26:58;43.67;;;26.02;;
32152;SDS011;18656;50.580;11.392;2023-02-11T07:29:25;44.70;;;26.15;;
32152;SDS011;18656;50.580;11.392;2023-02-11T07:31:53;42.50;;;25.75;;
32152;SDS011;18656;50.580;11.392;2023-02-11T07:34:20;46.20;;;26.30;;
32152;SDS011;18656;50.580;11.392;2023-02-11T07:36:47;47.28;;;26.92;;
32152;SDS011;18656;50.580;11.392;2023-02-11T07:39:15;42.92;;;27.30;;
32152;SDS011;18656;50.580;11.392;2023-02-11T07:41:42;46.13;;;27.42;;
32152;SDS011;18656;50.580;11.392;2023-02-11T07:44:13;48.15;;;28.75;;
32152;SDS011;18656;50.580;11.392;2023-02-11T07:46:40;47.70;;;28.10;;
32152;SDS011;18656;50.580;11.392;2023-02-11T07:49:11;42.80;;;26.35;;
32152;SDS011;18656;50.580;11.392;2023-02-11T07:51:38;40.25;;;24.52;;
32152;SDS011;18656;50.580;11.392;2023-02-11T07:54:05;38.08;;;23.25;;
32152;SDS011;18656;50.580;11.392;2023-02-11T07:56:33;41.30;;;24.35;;
32152;SDS011;18656;50.580;11.392;2023-02-11T07:59:01;39.92;;;24.25;;
32152;SDS011;18656;50.580;11.392;2023-02-11T08:01:29;38.78;;;24.13;;
32152;SDS011;18656;50.580;11.392;2023-02-11T08:03:56;38.88;;;24.10;;
32152;SDS011;18656;50.580;11.392;2023-02-11T08:06:25;41.83;;;24.23;;
32152;SDS011;18656;50.580;11.392;2023-02-11T08:08:53;38.85;;;24.55;;
32152;SDS011;18656;50.580;11.392;2023-02-11T08:11:21;38.00;;;23.23;;
32152;SDS011;18656;50.580;11.392;2023-02-11T08:13:49;41.50;;;25.55;;
32152;SDS011;18656;50.580;11.392;2023-02-11T08:18:44;44.55;;;26.50;;
32152;SDS011;18656;50.580;11.392;2023-02-11T08:21:11;50.38;;;26.10;;
32152;SDS011;18656;50.580;11.392;2023-02-11T08:23:39;48.88;;;25.95;;
32152;SDS011;18656;50.580;11.392;2023-02-11T08:26:13;50.42;;;28.67;;
32152;SDS011;18656;50.580;11.392;2023-02-11T08:28:41;46.45;;;26.70;;
32152;SDS011;18656;50.580;11.392;2023-02-11T08:31:10;65.63;;;31.27;;
32152;SDS011;18656;50.580;11.392;2023-02-11T08:33:38;56.08;;;29.42;;
32152;SDS011;18656;50.580;11.392;2023-02-11T08:36:07;57.60;;;29.80;;
32152;SDS011;18656;50.580;11.392;2023-02-11T08:38:34;46.13;;;26.83;;
32152;SDS011;18656;50.580;11.392;2023-02-11T08:41:02;55.15;;;29.48;;
32152;SDS011;18656;50.580;11.392;2023-02-11T08:43:29;45.35;;;25.98;;
32152;SDS011;18656;50.580;11.392;2023-02-11T08:45:58;48.35;;;25.95;;
32152;SDS011;18656;50.580;11.392;2023-02-11T08:48:27;44.90;;;26.33;;
32152;SDS011;18656;50.580;11.392;2023-02-11T08:50:56;41.60;;;25.42;;
32152;SDS011;18656;50.580;11.392;2023-02-11T08:53:23;44.45;;;26.65;;
32152;SDS011;18656;50.580;11.392;2023-02-11T08:55:53;40.15;;;25.10;;
32152;SDS011;18656;50.580;11.392;2023-02-11T08:58:21;39.00;;;25.45;;
32152;SDS011;18656;50.580;11.392;2023-02-11T09:00:48;43.95;;;25.80;;
32152;SDS011;18656;50.580;11.392;2023-02-11T09:03:16;44.33;;;27.00;;
32152;SDS011;18656;50.580;11.392;2023-02-11T09:05:44;44.63;;;26.98;;
32152;SDS011;18656;50.580;11.392;2023-02-11T09:08:13;45.03;;;26.85;;
32152;SDS011;18656;50.580;11.392;2023-02-11T09:10:40;43.60;;;25.58;;
32152;SDS011;18656;50.580;11.392;2023-02-11T09:13:07;44.88;;;26.60;;
32152;SDS011;18656;50.580;11.392;2023-02-11T09:15:35;47.50;;;27.25;;
32152;SDS011;18656;50.580;11.392;2023-02-11T09:18:03;37.90;;;25.45;;
32152;SDS011;18656;50.580;11.392;2023-02-11T09:20:31;44.72;;;25.73;;
32152;SDS011;18656;50.580;11.392;2023-02-11T09:22:58;46.33;;;25.55;;
32152;SDS011;18656;50.580;11.392;2023-02-11T09:25:26;47.47;;;27.30;;
32152;SDS011;18656;50.580;11.392;2023-02-11T09:27:53;44.08;;;25.80;;
32152;SDS011;18656;50.580;11.392;2023-02-11T09:30:20;44.28;;;27.77;;
32152;SDS011;18656;50.580;11.392;2023-02-11T09:32:47;41.53;;;25.65;;
32152;SDS011;18656;50.580;11.392;2023-02-11T09:35:15;41.00;;;24.48;;
32152;SDS011;18656;50.580;11.392;2023-02-11T09:37:43;38.15;;;24.63;;
32152;SDS011;18656;50.580;11.392;2023-02-11T09:40:10;40.90;;;25.33;;
32152;SDS011;18656;50.580;11.392;2023-02-11T09:45:29;43.97;;;26.05;;
32152;SDS011;18656;50.580;11.392;2023-02-11T09:50:29;42.03;;;25.20;;
32152;SDS011;18656;50.580;11.392;2023-02-11T09:52:58;46.90;;;25.90;;
32152;SDS011;18656;50.580;11.392;2023-02-11T09:55:28;44.42;;;25.85;;
32152;SDS011;18656;50.580;11.392;2023-02-11T09:57:55;41.38;;;24.90;;
32152;SDS011;18656;50.580;11.392;2023-02-11T10:00:27;41.78;;;23.58;;
32152;SDS011;18656;50.580;11.392;2023-02-11T10:06:06;42.88;;;24.75;;
32152;SDS011;18656;50.580;11.392;2023-02-11T10:08:49;38.55;;;24.05;;
32152;SDS011;18656;50.580;11.392;2023-02-11T10:14:18;46.67;;;25.05;;
32152;SDS011;18656;50.580;11.392;2023-02-11T10:16:54;44.20;;;26.83;;
32152;SDS011;18656;50.580;11.392;2023-02-11T10:22:14;40.80;;;24.90;;
32152;SDS011;18656;50.580;11.392;2023-02-11T10:24:40;45.53;;;25.48;;
32152;SDS011;18656;50.580;11.392;2023-02-11T10:27:19;42.17;;;25.38;;
32152;SDS011;18656;50.580;11.392;2023-02-11T10:29:51;42.50;;;25.75;;
32152;SDS011;18656;50.580;11.392;2023-02-11T10:32:27;45.42;;;26.67;;
32152;SDS011;18656;50.580;11.392;2023-02-11T10:34:57;41.70;;;24.90;;
32152;SDS011;18656;50.580;11.392;2023-02-11T10:37:26;43.22;;;23.02;;
32152;SDS011;18656;50.580;11.392;2023-02-11T10:39:54;38.42;;;23.85;;
32152;SDS011;18656;50.580;11.392;2023-02-11T10:42:21;40.03;;;23.55;;
32152;SDS011;18656;50.580;11.392;2023-02-11T10:44:59;39.97;;;24.67;;
32152;SDS011;18656;50.580;11.392;2023-02-11T10:47:27;38.42;;;23.35;;
32152;SDS011;18656;50.580;11.392;2023-02-11T10:49:57;37.13;;;22.45;;
32152;SDS011;18656;50.580;11.392;2023-02-11T10:52:29;37.97;;;22.83;;
32152;SDS011;18656;50.580;11.392;2023-02-11T10:55:16;35.05;;;21.95;;
32152;SDS011;18656;50.580;11.392;2023-02-11T10:57:54;35.90;;;21.85;;
32152;SDS011;18656;50.580;11.392;2023-02-11T11:00:26;36.47;;;22.20;;
32152;SDS011;18656;50.580;11.392;2023-02-11T11:03:00;32.67;;;20.95;;
32152;SDS011;18656;50.580;11.392;2023-02-11T11:05:35;38.10;;;22.42;;
32152;SDS011;18656;50.580;11.392;2023-02-11T11:08:07;30.58;;;20.73;;
32152;SDS011;18656;50.580;11.392;2023-02-11T11:10:39;35.30;;;20.60;;
32152;SDS011;18656;50.580;11.392;2023-02-11T11:13:27;30.05;;;19.27;;
32152;SDS011;18656;50.580;11.392;2023-02-11T11:18:41;26.23;;;18.10;;
32152;SDS011;18656;50.580;11.392;2023-02-11T11:21:22;26.85;;;17.77;;
32152;SDS011;18656;50.580;11.392;2023-02-11T11:26:20;25.85;;;16.25;;
32152;SDS011;18656;50.580;11.392;2023-02-11T11:31:35;20.42;;;14.18;;
32152;SDS011;18656;50.580;11.392;2023-02-11T11:34:16;19.92;;;14.35;;
32152;SDS011;18656;50.580;11.392;2023-02-11T11:36:44;24.88;;;14.73;;
32152;SDS011;18656;50.580;11.392;2023-02-11T11:39:16;23.58;;;16.17;;
32152;SDS011;18656;50.580;11.392;2023-02-11T11:42:00;23.65;;;15.77;;
32152;SDS011;18656;50.580;11.392;2023-02-11T11:44:30;24.00;;;15.70;;
32152;SDS011;18656;50.580;11.392;2023-02-11T11:47:13;20.92;;;15.30;;
32152;SDS011;18656;50.580;11.392;2023-02-11T11:49:44;19.95;;;14.82;;
32152;SDS011;18656;50.580;11.392;2023-02-11T11:52:25;21.77;;;15.30;;
32152;SDS011;18656;50.580;11.392;2023-02-11T11:55:02;22.25;;;15.43;;
32152;SDS011;18656;50.580;11.392;2023-02-11T11:57:31;25.40;;;16.45;;
32152;SDS011;18656;50.580;11.392;2023-02-11T12:00:02;21.65;;;16.08;;
32152;SDS011;18656;50.580;11.392;2023-02-11T12:05:35;21.48;;;15.10;;
32152;SDS011;18656;50.580;11.392;2023-02-11T12:08:16;20.20;;;14.77;;
32152;SDS011;18656;50.580;11.392;2023-02-11T12:13:19;18.70;;;14.20;;
32152;SDS011;18656;50.580;11.392;2023-02-11T12:16:12;21.27;;;14.23;;
32152;SDS011;18656;50.580;11.392;2023-02-11T12:24:35;19.42;;;13.75;;
32152;SDS011;18656;50.580;11.392;2023-02-11T12:27:00;22.40;;;13.70;;
32152;SDS011;18656;50.580;11.392;2023-02-11T12:29:39;20.77;;;14.05;;
32152;SDS011;18656;50.580;11.392;2023-02-11T12:34:41;20.70;;;13.90;;
32152;SDS011;18656;50.580;11.392;2023-02-11T12:37:17;20.77;;;13.85;;
32152;SDS011;18656;50.580;11.392;2023-02-11T12:45:22;20.85;;;13.32;;
32152;SDS011;18656;50.580;11.392;2023-02-11T12:48:14;21.15;;;13.52;;
32152;SDS011;18656;50.580;11.392;2023-02-11T12:50:52;22.35;;;14.27;;
32152;SDS011;18656;50.580;11.392;2023-02-11T12:53:43;21.70;;;14.50;;
32152;SDS011;18656;50.580;11.392;2023-02-11T12:56:15;20.08;;;13.32;;
32152;SDS011;18656;50.580;11.392;2023-02-11T12:58:44;21.33;;;13.32;;
32152;SDS011;18656;50.580;11.392;2023-02-11T13:01:18;19.90;;;13.68;;
32152;SDS011;18656;50.580;11.392;2023-02-11T13:03:47;21.30;;;13.50;;
32152;SDS011;18656;50.580;11.392;2023-02-11T13:06:17;26.00;;;13.75;;
32152;SDS011;18656;50.580;11.392;2023-02-11T13:08:53;21.13;;;13.63;;
32152;SDS011;18656;50.580;11.392;2023-02-11T13:11:25;20.17;;;13.63;;
32152;SDS011;18656;50.580;11.392;2023-02-11T13:13:59;20.08;;;13.52;;
32152;SDS011;18656;50.580;11.392;2023-02-11T13:16:33;21.23;;;12.95;;
32152;SDS011;18656;50.580;11.392;2023-02-11T13:21:50;19.85;;;13.52;;
32152;SDS011;18656;50.580;11.392;2023-02-11T13:24:25;20.95;;;14.35;;
32152;SDS011;18656;50.580;11.392;2023-02-11T13:27:04;19.77;;;13.27;;
32152;SDS011;18656;50.580;11.392;2023-02-11T13:32:05;21.08;;;13.48;;
32152;SDS011;18656;50.580;11.392;2023-02-11T13:40:03;20.10;;;12.70;;
32152;SDS011;18656;50.580;11.392;2023-02-11T13:42:31;19.40;;;12.63;;
32152;SDS011;18656;50.580;11.392;2023-02-11T13:45:00;20.42;;;12.95;;
32152;SDS011;18656;50.580;11.392;2023-02-11T13:47:31;21.88;;;13.63;;
32152;SDS011;18656;50.580;11.392;2023-02-11T13:50:02;21.67;;;12.57;;
32152;SDS011;18656;50.580;11.392;2023-02-11T13:52:32;18.58;;;12.15;;
32152;SDS011;18656;50.580;11.392;2023-02-11T13:55:08;16.75;;;12.30;;
32152;SDS011;18656;50.580;11.392;2023-02-11T13:57:40;19.42;;;13.48;;
32152;SDS011;18656;50.580;11.392;2023-02-11T14:08:58;19.45;;;12.18;;
32152;SDS011;18656;50.580;11.392;2023-02-11T14:11:41;18.58;;;12.70;;
32152;SDS011;18656;50.580;11.392;2023-02-11T14:14:13;19.85;;;13.13;;
32152;SDS011;18656;50.580;11.392;2023-02-11T14:19:43;21.27;;;13.50;;
32152;SDS011;18656;50.580;11.392;2023-02-11T14:22:12;18.23;;;13.10;;
32152;SDS011;18656;50.580;11.392;2023-02-11T14:24:52;17.73;;;12.20;;
32152;SDS011;18656;50.580;11.392;2023-02-11T14:27:24;19.95;;;12.18;;
32152;SDS011;18656;50.580;11.392;2023-02-11T14:35:11;17.10;;;12.18;;
32152;SDS011;18656;50.580;11.392;2023-02-11T14:40:24;17.17;;;12.00;;
32152;SDS011;18656;50.580;11.392;2023-02-11T14:42:53;19.77;;;12.23;;
32152;SDS011;18656;50.580;11.392;2023-02-11T14:45:22;18.95;;;12.40;;
32152;SDS011;18656;50.580;11.392;2023-02-11T14:47:59;17.83;;;12.68;;
32152;SDS011;18656;50.580;11.392;2023-02-11T14:50:45;19.23;;;11.70;;
32152;SDS011;18656;50.580;11.392;2023-02-11T14:53:16;18.60;;;11.73;;
32152;SDS011;18656;50.580;11.392;2023-02-11T14:55:45;18.05;;;11.88;;
32152;SDS011;18656;50.580;11.392;2023-02-11T14:58:17;17.00;;;12.68;;
32152;SDS011;18656;50.580;11.392;2023-02-11T15:05:45;16.40;;;11.48;;
32152;SDS011;18656;50.580;11.392;2023-02-11T15:08:19;15.95;;;11.43;;
32152;SDS011;18656;50.580;11.392;2023-02-11T15:10:47;16.17;;;10.65;;
32152;SDS011;18656;50.580;11.392;2023-02-11T15:13:15;15.65;;;10.95;;
32152;SDS011;18656;50.580;11.392;2023-02-11T15:15:44;17.90;;;11.50;;
32152;SDS011;18656;50.580;11.392;2023-02-11T15:18:19;19.92;;;12.43;;
32152;SDS011;18656;50.580;11.392;2023-02-11T15:20:48;21.75;;;12.85;;
32152;SDS011;18656;50.580;11.392;2023-02-11T15:23:23;16.30;;;11.38;;
32152;SDS011;18656;50.580;11.392;2023-02-11T15:25:51;16.15;;;10.38;;
32152;SDS011;18656;50.580;11.392;2023-02-11T15:28:25;15.57;;;10.50;;
32152;SDS011;18656;50.580;11.392;2023-02-11T15:31:04;14.57;;;10.57;;
32152;SDS011;18656;50.580;11.392;2023-02-11T15:33:32;14.23;;;10.45;;
32152;SDS011;18656;50.580;11.392;2023-02-11T15:36:00;15.02;;;10.93;;
32152;SDS011;18656;50.580;11.392;2023-02-11T15:38:28;14.60;;;10.10;;
32152;SDS011;18656;50.580;11.392;2023-02-11T15:40:56;15.90;;;10.85;;
32152;SDS011;18656;50.580;11.392;2023-02-11T15:43:45;15.25;;;10.48;;
32152;SDS011;18656;50.580;11.392;2023-02-11T15:46:13;16.15;;;11.70;;
32152;SDS011;18656;50.580;11.392;2023-02-11T15:48:51;17.88;;;11.60;;
32152;SDS011;18656;50.580;11.392;2023-02-11T15:51:32;15.90;;;10.13;;
32152;SDS011;18656;50.580;11.392;2023-02-11T15:54:01;18.02;;;11.27;;
32152;SDS011;18656;50.580;11.392;2023-02-11T15:56:30;17.38;;;11.57;;
32152;SDS011;18656;50.580;11.392;2023-02-11T16:01:46;18.90;;;12.48;;
32152;SDS011;18656;50.580;11.392;2023-02-11T16:04:15;19.55;;;12.75;;
32152;SDS011;18656;50.580;11.392;2023-02-11T16:06:42;19.58;;;13.75;;
32152;SDS011;18656;50.580;11.392;2023-02-11T16:16:50;20.50;;;12.38;;
32152;SDS011;18656;50.580;11.392;2023-02-11T16:19:19;16.38;;;11.82;;
32152;SDS011;18656;50.580;11.392;2023-02-11T16:21:50;19.98;;;12.85;;